DLH4PH EDDF-EGLL
Flight info
| Callsign | DLH4PH |
|---|---|
| Flight time | N/A |
| Altitude | 38000 |
| Route | OBOKA3W/25C OBOKA Z29 TORNU DCT ABNED L980 LOGAN |
| Aircraft | A321/M-SDE2E3FGIJ1LORWXYZ/HB1 |
Departure
| Time | 2026-05-04 14:31 |
|---|---|
| Airport | Frankfurt Main Airport (EDDF) |
Arrival
| Time | N/A |
|---|---|
| Airport | London Heathrow Airport (EGLL) |
| Time | Latitude | Longitude | Altitude | Speed | Heading |
|---|---|---|---|---|---|
| 2026-05-04 13:56 | 50.04418 | 8.56275 | 358 ft | 0 kts | 162° |
| 2026-05-04 14:13 | 50.04440 | 8.56263 | 361 ft | 4 kts | 162° |
| 2026-05-04 14:14 | 50.04462 | 8.56253 | 360 ft | 2 kts | 167° |
| 2026-05-04 14:14 | 50.04489 | 8.56268 | 360 ft | 0 kts | 249° |
| 2026-05-04 14:14 | 50.04480 | 8.56232 | 363 ft | 4 kts | 249° |
| 2026-05-04 14:15 | 50.04461 | 8.56154 | 358 ft | 4 kts | 250° |
| 2026-05-04 14:15 | 50.04454 | 8.56124 | 364 ft | 0 kts | 250° |
| 2026-05-04 14:18 | 50.04454 | 8.56123 | 363 ft | 1 kts | 250° |
| 2026-05-04 14:19 | 50.04437 | 8.56058 | 361 ft | 6 kts | 239° |
| 2026-05-04 14:19 | 50.04396 | 8.56031 | 356 ft | 7 kts | 180° |
| 2026-05-04 14:19 | 50.04334 | 8.56061 | 360 ft | 11 kts | 160° |
| 2026-05-04 14:19 | 50.04292 | 8.56150 | 357 ft | 11 kts | 91° |
| 2026-05-04 14:20 | 50.04242 | 8.56239 | 359 ft | 13 kts | 159° |
| 2026-05-04 14:20 | 50.04156 | 8.56298 | 356 ft | 10 kts | 137° |
| 2026-05-04 14:20 | 50.04158 | 8.56406 | 359 ft | 11 kts | 70° |
| 2026-05-04 14:21 | 50.04218 | 8.56660 | 364 ft | 14 kts | 69° |
| 2026-05-04 14:21 | 50.04254 | 8.56809 | 363 ft | 15 kts | 70° |
| 2026-05-04 14:21 | 50.04295 | 8.56981 | 364 ft | 18 kts | 70° |
| 2026-05-04 14:21 | 50.04338 | 8.57169 | 362 ft | 19 kts | 70° |
| 2026-05-04 14:22 | 50.04386 | 8.57362 | 365 ft | 20 kts | 70° |
| 2026-05-04 14:22 | 50.04435 | 8.57568 | 366 ft | 20 kts | 70° |
| 2026-05-04 14:22 | 50.04481 | 8.57761 | 366 ft | 20 kts | 69° |
| 2026-05-04 14:22 | 50.04518 | 8.57919 | 368 ft | 8 kts | 70° |
| 2026-05-04 14:23 | 50.04582 | 8.58186 | 369 ft | 18 kts | 69° |
| 2026-05-04 14:23 | 50.04623 | 8.58353 | 370 ft | 16 kts | 69° |
| 2026-05-04 14:23 | 50.04650 | 8.58519 | 369 ft | 10 kts | 101° |
| 2026-05-04 14:24 | 50.04643 | 8.58541 | 374 ft | 0 kts | 123° |
| 2026-05-04 14:25 | 50.04641 | 8.58547 | 372 ft | 0 kts | 123° |
| 2026-05-04 14:26 | 50.04634 | 8.58558 | 370 ft | 4 kts | 133° |
| 2026-05-04 14:26 | 50.04597 | 8.58586 | 369 ft | 0 kts | 159° |
| 2026-05-04 14:27 | 50.04596 | 8.58587 | 369 ft | 0 kts | 159° |
| 2026-05-04 14:27 | 50.04595 | 8.58587 | 369 ft | 0 kts | 159° |
| 2026-05-04 14:28 | 50.04586 | 8.58593 | 371 ft | 4 kts | 159° |
| 2026-05-04 14:28 | 50.04544 | 8.58615 | 371 ft | 8 kts | 167° |
| 2026-05-04 14:28 | 50.04481 | 8.58559 | 370 ft | 13 kts | 242° |
| 2026-05-04 14:28 | 50.04472 | 8.58522 | 370 ft | 0 kts | 249° |
| 2026-05-04 14:30 | 50.04471 | 8.58521 | 370 ft | 1 kts | 249° |
| 2026-05-04 14:30 | 50.04398 | 8.58219 | 374 ft | 69 kts | 249° |
| 2026-05-04 14:30 | 50.03765 | 8.55567 | 673 ft | 161 kts | 246° |
| 2026-05-04 14:31 | 50.03394 | 8.53977 | 1612 ft | 151 kts | 250° |
| 2026-05-04 14:31 | 50.02586 | 8.50606 | 2567 ft | 182 kts | 249° |
| 2026-05-04 14:32 | 50.00490 | 8.48071 | 3438 ft | 208 kts | 199° |
| 2026-05-04 14:32 | 49.99045 | 8.47732 | 3960 ft | 210 kts | 191° |
| 2026-05-04 14:32 | 49.97592 | 8.47421 | 4502 ft | 211 kts | 192° |
| 2026-05-04 14:32 | 49.96134 | 8.47079 | 5067 ft | 213 kts | 195° |
| 2026-05-04 14:33 | 49.94668 | 8.46424 | 5438 ft | 231 kts | 199° |
| 2026-05-04 14:33 | 49.93081 | 8.45664 | 6065 ft | 241 kts | 202° |
| 2026-05-04 14:33 | 49.91638 | 8.44402 | 6897 ft | 243 kts | 218° |
| 2026-05-04 14:33 | 49.90491 | 8.42466 | 7684 ft | 247 kts | 236° |
| 2026-05-04 14:34 | 49.89593 | 8.40127 | 8486 ft | 250 kts | 237° |
| 2026-05-04 14:34 | 49.88866 | 8.37707 | 9257 ft | 255 kts | 250° |
| 2026-05-04 14:34 | 49.88604 | 8.34881 | 9808 ft | 274 kts | 268° |
| 2026-05-04 14:34 | 49.88757 | 8.31889 | 10228 ft | 291 kts | 271° |
| 2026-05-04 14:35 | 49.88984 | 8.28601 | 10401 ft | 316 kts | 278° |
| 2026-05-04 14:35 | 49.89753 | 8.25296 | 10713 ft | 336 kts | 296° |
| 2026-05-04 14:35 | 49.91110 | 8.22275 | 11297 ft | 344 kts | 304° |
| 2026-05-04 14:35 | 49.92535 | 8.19319 | 11939 ft | 348 kts | 303° |
| 2026-05-04 14:36 | 49.94033 | 8.16298 | 12651 ft | 352 kts | 309° |
| 2026-05-04 14:36 | 49.95808 | 8.13698 | 13345 ft | 358 kts | 316° |
| 2026-05-04 14:36 | 49.97697 | 8.11159 | 13999 ft | 361 kts | 317° |
| 2026-05-04 14:36 | 49.99611 | 8.08608 | 14584 ft | 364 kts | 317° |
| 2026-05-04 14:37 | 50.01544 | 8.06039 | 15179 ft | 367 kts | 316° |
| 2026-05-04 14:37 | 50.03490 | 8.03446 | 15763 ft | 370 kts | 316° |
| 2026-05-04 14:37 | 50.05453 | 8.00823 | 16350 ft | 373 kts | 316° |
| 2026-05-04 14:37 | 50.07427 | 7.98179 | 16929 ft | 376 kts | 316° |
| 2026-05-04 14:38 | 50.09419 | 7.95503 | 17495 ft | 379 kts | 316° |
| 2026-05-04 14:38 | 50.11423 | 7.92807 | 18054 ft | 382 kts | 316° |
| 2026-05-04 14:38 | 50.13442 | 7.90090 | 18548 ft | 386 kts | 316° |
| 2026-05-04 14:38 | 50.15477 | 7.87344 | 19036 ft | 388 kts | 316° |
| 2026-05-04 14:39 | 50.17532 | 7.84568 | 19507 ft | 392 kts | 316° |
| 2026-05-04 14:39 | 50.19596 | 7.81779 | 19998 ft | 394 kts | 316° |
| 2026-05-04 14:39 | 50.21675 | 7.78964 | 20472 ft | 397 kts | 315° |
| 2026-05-04 14:40 | 50.26043 | 7.73579 | 21411 ft | 406 kts | 327° |
| 2026-05-04 14:40 | 50.28610 | 7.71643 | 21859 ft | 412 kts | 334° |
| 2026-05-04 14:40 | 50.31244 | 7.69856 | 22322 ft | 414 kts | 333° |
| 2026-05-04 14:40 | 50.33893 | 7.68050 | 22769 ft | 417 kts | 333° |
| 2026-05-04 14:41 | 50.36558 | 7.66227 | 23197 ft | 419 kts | 333° |
| 2026-05-04 14:41 | 50.39239 | 7.64390 | 23621 ft | 422 kts | 333° |
| 2026-05-04 14:41 | 50.44641 | 7.60670 | 23974 ft | 424 kts | 333° |
| 2026-05-04 14:42 | 50.50040 | 7.56944 | 23984 ft | 424 kts | 333° |
| 2026-05-04 14:42 | 50.52743 | 7.55077 | 23984 ft | 424 kts | 333° |
| 2026-05-04 14:42 | 50.55423 | 7.53170 | 23982 ft | 422 kts | 329° |
| 2026-05-04 14:43 | 50.57929 | 7.50807 | 23981 ft | 419 kts | 323° |
| 2026-05-04 14:43 | 50.60373 | 7.48304 | 23984 ft | 419 kts | 323° |
| 2026-05-04 14:43 | 50.61995 | 7.46642 | 23993 ft | 419 kts | 323° |
| 2026-05-04 14:43 | 50.64437 | 7.44139 | 23991 ft | 418 kts | 323° |
| 2026-05-04 14:44 | 50.66874 | 7.41636 | 23985 ft | 419 kts | 323° |
| 2026-05-04 14:44 | 50.69324 | 7.39117 | 24329 ft | 421 kts | 323° |
| 2026-05-04 14:44 | 50.71750 | 7.36521 | 24743 ft | 421 kts | 318° |
| 2026-05-04 14:44 | 50.73900 | 7.33424 | 25122 ft | 418 kts | 308° |
| 2026-05-04 14:45 | 50.75682 | 7.29830 | 25502 ft | 415 kts | 298° |
| 2026-05-04 14:45 | 50.77092 | 7.25861 | 25885 ft | 414 kts | 293° |
| 2026-05-04 14:45 | 50.78409 | 7.21812 | 26253 ft | 416 kts | 293° |
| 2026-05-04 14:45 | 50.79730 | 7.17732 | 26610 ft | 418 kts | 292° |
| 2026-05-04 14:46 | 50.81057 | 7.13636 | 26962 ft | 420 kts | 292° |
| 2026-05-04 14:46 | 50.82389 | 7.09523 | 27365 ft | 422 kts | 292° |
| 2026-05-04 14:46 | 50.83728 | 7.05381 | 27773 ft | 424 kts | 292° |
| 2026-05-04 14:46 | 50.85076 | 7.01215 | 28160 ft | 427 kts | 292° |
| 2026-05-04 14:47 | 50.86435 | 6.97018 | 28515 ft | 430 kts | 292° |
| 2026-05-04 14:47 | 50.87803 | 6.92787 | 28887 ft | 432 kts | 292° |
| 2026-05-04 14:47 | 50.89154 | 6.88597 | 29233 ft | 434 kts | 292° |
| 2026-05-04 14:47 | 50.90526 | 6.84328 | 29549 ft | 436 kts | 292° |
| 2026-05-04 14:48 | 50.91920 | 6.79974 | 29896 ft | 438 kts | 292° |
| 2026-05-04 14:48 | 50.93282 | 6.75715 | 30197 ft | 440 kts | 292° |
| 2026-05-04 14:48 | 50.94665 | 6.71380 | 30477 ft | 442 kts | 292° |
| 2026-05-04 14:48 | 50.96053 | 6.67026 | 30755 ft | 443 kts | 292° |
| 2026-05-04 14:49 | 50.97447 | 6.62662 | 31048 ft | 444 kts | 292° |
| 2026-05-04 14:49 | 50.98845 | 6.58278 | 31323 ft | 446 kts | 291° |
| 2026-05-04 14:49 | 51.00245 | 6.53874 | 31571 ft | 448 kts | 291° |
| 2026-05-04 14:49 | 51.01644 | 6.49461 | 31933 ft | 447 kts | 291° |
| 2026-05-04 14:50 | 51.03037 | 6.45055 | 32387 ft | 445 kts | 291° |
| 2026-05-04 14:50 | 51.04419 | 6.40669 | 32896 ft | 443 kts | 291° |
| 2026-05-04 14:50 | 51.05794 | 6.36299 | 33413 ft | 441 kts | 291° |
| 2026-05-04 14:50 | 51.07159 | 6.31954 | 33790 ft | 439 kts | 291° |
| 2026-05-04 14:51 | 51.08519 | 6.27622 | 34133 ft | 437 kts | 291° |
| 2026-05-04 14:51 | 51.09876 | 6.23298 | 34393 ft | 436 kts | 291° |
| 2026-05-04 14:51 | 51.11225 | 6.18985 | 34641 ft | 436 kts | 291° |
| 2026-05-04 14:51 | 51.12574 | 6.14666 | 34890 ft | 436 kts | 291° |
| 2026-05-04 14:52 | 51.13846 | 6.10303 | 35098 ft | 433 kts | 285° |
| 2026-05-04 14:52 | 51.14723 | 6.05757 | 35313 ft | 428 kts | 279° |
| 2026-05-04 14:52 | 51.15464 | 6.01159 | 35605 ft | 428 kts | 279° |
| 2026-05-04 14:52 | 51.16197 | 5.96624 | 35908 ft | 429 kts | 279° |
| 2026-05-04 14:53 | 51.17674 | 5.87463 | 35985 ft | 424 kts | 280° |
| 2026-05-04 14:53 | 51.19605 | 5.78568 | 35992 ft | 427 kts | 288° |
| 2026-05-04 14:54 | 51.21920 | 5.69845 | 35986 ft | 428 kts | 288° |
| 2026-05-04 14:54 | 51.24227 | 5.61073 | 35970 ft | 429 kts | 288° |
| 2026-05-04 14:55 | 51.26532 | 5.52275 | 35971 ft | 430 kts | 288° |
| 2026-05-04 14:55 | 51.28833 | 5.43456 | 35972 ft | 430 kts | 288° |
| 2026-05-04 14:56 | 51.31133 | 5.34627 | 35980 ft | 431 kts | 287° |
| 2026-05-04 14:56 | 51.33424 | 5.25780 | 36004 ft | 431 kts | 287° |
| 2026-05-04 14:57 | 51.35706 | 5.16905 | 35997 ft | 431 kts | 287° |
| 2026-05-04 14:57 | 51.37989 | 5.08027 | 35995 ft | 432 kts | 287° |
| 2026-05-04 14:58 | 51.40274 | 4.99127 | 35994 ft | 432 kts | 287° |
| 2026-05-04 14:58 | 51.42552 | 4.90204 | 35997 ft | 433 kts | 287° |
| 2026-05-04 14:59 | 51.44820 | 4.81278 | 35997 ft | 432 kts | 287° |
| 2026-05-04 15:00 | 51.48211 | 4.67866 | 35992 ft | 433 kts | 287° |
| 2026-05-04 15:00 | 51.50464 | 4.58901 | 36006 ft | 433 kts | 287° |
| 2026-05-04 15:01 | 51.53833 | 4.45435 | 35995 ft | 433 kts | 287° |
| 2026-05-04 15:01 | 51.56070 | 4.36458 | 35997 ft | 433 kts | 287° |
| 2026-05-04 15:02 | 51.58304 | 4.27474 | 35995 ft | 433 kts | 287° |
| 2026-05-04 15:02 | 51.60512 | 4.18540 | 35995 ft | 432 kts | 287° |
| 2026-05-04 15:03 | 51.62737 | 4.09488 | 35999 ft | 432 kts | 287° |
| 2026-05-04 15:03 | 51.64940 | 4.00486 | 36008 ft | 432 kts | 287° |
| 2026-05-04 15:04 | 51.67143 | 3.91467 | 36017 ft | 432 kts | 287° |
| 2026-05-04 15:04 | 51.69336 | 3.82457 | 36030 ft | 432 kts | 287° |
| 2026-05-04 15:05 | 51.71524 | 3.73417 | 36022 ft | 433 kts | 287° |
| 2026-05-04 15:05 | 51.73707 | 3.64362 | 36024 ft | 433 kts | 287° |
| 2026-05-04 15:06 | 51.75868 | 3.55355 | 36038 ft | 433 kts | 287° |
| 2026-05-04 15:07 | 51.79112 | 3.41744 | 36037 ft | 433 kts | 286° |
| 2026-05-04 15:07 | 51.81266 | 3.32670 | 36044 ft | 433 kts | 287° |
| 2026-05-04 15:08 | 51.83414 | 3.23581 | 36034 ft | 433 kts | 285° |
| 2026-05-04 15:08 | 51.84561 | 3.14191 | 36030 ft | 422 kts | 267° |
| 2026-05-04 15:09 | 51.84104 | 3.04809 | 36021 ft | 418 kts | 260° |
| 2026-05-04 15:09 | 51.83493 | 2.95448 | 36019 ft | 419 kts | 261° |
| 2026-05-04 15:10 | 51.82580 | 2.81389 | 36021 ft | 420 kts | 261° |
| 2026-05-04 15:11 | 51.81621 | 2.67310 | 35999 ft | 422 kts | 261° |
| 2026-05-04 15:11 | 51.80972 | 2.57864 | 35982 ft | 424 kts | 261° |
| 2026-05-04 15:12 | 51.80308 | 2.48376 | 35995 ft | 426 kts | 260° |
| 2026-05-04 15:12 | 51.79640 | 2.38883 | 34890 ft | 424 kts | 260° |
| 2026-05-04 15:12 | 51.79306 | 2.34149 | 33533 ft | 423 kts | 260° |
| 2026-05-04 15:13 | 51.78974 | 2.29452 | 32279 ft | 418 kts | 260° |
| 2026-05-04 15:13 | 51.78641 | 2.24823 | 31139 ft | 411 kts | 260° |
| 2026-05-04 15:13 | 51.78323 | 2.20341 | 30674 ft | 390 kts | 260° |
| 2026-05-04 15:13 | 51.78058 | 2.16088 | 30007 ft | 376 kts | 261° |
| 2026-05-04 15:14 | 51.77819 | 2.11897 | 28915 ft | 372 kts | 261° |
| 2026-05-04 15:14 | 51.77589 | 2.07764 | 27977 ft | 370 kts | 262° |
| 2026-05-04 15:14 | 51.77361 | 2.03681 | 27825 ft | 358 kts | 261° |
| 2026-05-04 15:14 | 51.77134 | 1.99700 | 27837 ft | 366 kts | 261° |
| 2026-05-04 15:15 | 51.76886 | 1.95522 | 27835 ft | 371 kts | 261° |
| 2026-05-04 15:15 | 51.76638 | 1.91420 | 27751 ft | 373 kts | 262° |
| 2026-05-04 15:15 | 51.76384 | 1.87283 | 27450 ft | 367 kts | 261° |
| 2026-05-04 15:16 | 51.75886 | 1.79227 | 26695 ft | 355 kts | 262° |
| 2026-05-04 15:16 | 51.75642 | 1.75283 | 26328 ft | 350 kts | 262° |
| 2026-05-04 15:16 | 51.75159 | 1.67578 | 25593 ft | 340 kts | 262° |
| 2026-05-04 15:17 | 51.74922 | 1.63810 | 25221 ft | 336 kts | 262° |
| 2026-05-04 15:17 | 51.74448 | 1.56316 | 24305 ft | 345 kts | 262° |
| 2026-05-04 15:17 | 51.74199 | 1.52439 | 23784 ft | 348 kts | 262° |
| 2026-05-04 15:18 | 51.73950 | 1.48541 | 23209 ft | 352 kts | 262° |
| 2026-05-04 15:18 | 51.73686 | 1.44480 | 22656 ft | 371 kts | 262° |
| 2026-05-04 15:18 | 51.73417 | 1.40317 | 22091 ft | 374 kts | 262° |
| 2026-05-04 15:19 | 51.72881 | 1.31996 | 20973 ft | 371 kts | 262° |
| 2026-05-04 15:19 | 51.72612 | 1.27871 | 20420 ft | 369 kts | 262° |
| 2026-05-04 15:19 | 51.72068 | 1.19687 | 19316 ft | 365 kts | 262° |
| 2026-05-04 15:20 | 51.71795 | 1.15632 | 18773 ft | 363 kts | 262° |
| 2026-05-04 15:20 | 51.71523 | 1.11604 | 18229 ft | 361 kts | 262° |
| 2026-05-04 15:20 | 51.71252 | 1.07596 | 17642 ft | 358 kts | 262° |
| 2026-05-04 15:20 | 51.70981 | 1.03627 | 17106 ft | 355 kts | 262° |
| 2026-05-04 15:21 | 51.70708 | 0.99691 | 16581 ft | 352 kts | 263° |
| 2026-05-04 15:21 | 51.70437 | 0.95789 | 16057 ft | 349 kts | 262° |
| 2026-05-04 15:21 | 51.69905 | 0.88095 | 15129 ft | 342 kts | 262° |
| 2026-05-04 15:22 | 51.69642 | 0.84308 | 14668 ft | 339 kts | 263° |
| 2026-05-04 15:22 | 51.69379 | 0.80539 | 14210 ft | 337 kts | 263° |
| 2026-05-04 15:22 | 51.68849 | 0.73087 | 13271 ft | 332 kts | 263° |
| 2026-05-04 15:23 | 51.68584 | 0.69415 | 12827 ft | 329 kts | 263° |
| 2026-05-04 15:23 | 51.68327 | 0.65820 | 12389 ft | 326 kts | 263° |
| 2026-05-04 15:23 | 51.68065 | 0.62172 | 11948 ft | 321 kts | 262° |
| 2026-05-04 15:23 | 51.67792 | 0.58683 | 11800 ft | 306 kts | 263° |
| 2026-05-04 15:24 | 51.67320 | 0.52101 | 10851 ft | 288 kts | 263° |
| 2026-05-04 15:24 | 51.66891 | 0.45885 | 9735 ft | 263 kts | 262° |
| 2026-05-04 15:25 | 51.66691 | 0.43059 | 9417 ft | 248 kts | 262° |
| 2026-05-04 15:25 | 51.66487 | 0.40266 | 9113 ft | 252 kts | 262° |
| 2026-05-04 15:25 | 51.66277 | 0.37458 | 8796 ft | 252 kts | 262° |
| 2026-05-04 15:26 | 51.65856 | 0.31908 | 8307 ft | 244 kts | 262° |
| 2026-05-04 15:26 | 51.65653 | 0.29209 | 8065 ft | 238 kts | 262° |
| 2026-05-04 15:26 | 51.65260 | 0.23956 | 7229 ft | 245 kts | 262° |
| 2026-05-04 15:27 | 51.65057 | 0.21265 | 7041 ft | 237 kts | 262° |
| 2026-05-04 15:27 | 51.64665 | 0.16093 | 7026 ft | 234 kts | 262° |
| 2026-05-04 15:28 | 51.64753 | 0.10833 | 7025 ft | 235 kts | 272° |
| 2026-05-04 15:28 | 51.64853 | 0.08213 | 7024 ft | 235 kts | 273° |
| 2026-05-04 15:28 | 51.65052 | 0.02939 | 7027 ft | 239 kts | 272° |
| 2026-05-04 15:29 | 51.65150 | 0.00255 | 7024 ft | 236 kts | 272° |
| 2026-05-04 15:30 | 51.65529 | -0.10269 | 7075 ft | 236 kts | 271° |
| 2026-05-04 15:30 | 51.65288 | -0.17211 | 6894 ft | 226 kts | 241° |
| 2026-05-04 15:31 | 51.62553 | -0.20351 | 6548 ft | 211 kts | 198° |
| 2026-05-04 15:31 | 51.61104 | -0.21099 | 6397 ft | 223 kts | 198° |
| 2026-05-04 15:32 | 51.56687 | -0.20825 | 5400 ft | 225 kts | 143° |
| 2026-05-04 15:32 | 51.55056 | -0.17746 | 5198 ft | 213 kts | 127° |
| 2026-05-04 15:33 | 51.53177 | -0.14016 | 4176 ft | 210 kts | 143° |
| 2026-05-04 15:34 | 51.49267 | -0.15345 | 3605 ft | 210 kts | 206° |
| 2026-05-04 15:34 | 51.47974 | -0.16387 | 3339 ft | 209 kts | 215° |
| 2026-05-04 15:34 | 51.46540 | -0.20259 | 2953 ft | 205 kts | 267° |
| 2026-05-04 15:35 | 51.46525 | -0.24590 | 2451 ft | 187 kts | 272° |
| 2026-05-04 15:35 | 51.46524 | -0.26606 | 2202 ft | 175 kts | 272° |
| 2026-05-04 15:35 | 51.46522 | -0.28481 | 1984 ft | 160 kts | 272° |
| 2026-05-04 15:36 | 51.46518 | -0.31851 | 1526 ft | 148 kts | 272° |
| 2026-05-04 15:36 | 51.46519 | -0.33484 | 1381 ft | 145 kts | 274° |
| 2026-05-04 15:36 | 51.46513 | -0.35094 | 1262 ft | 145 kts | 271° |
| 2026-05-04 15:37 | 51.46508 | -0.36707 | 1060 ft | 144 kts | 271° |
| 2026-05-04 15:37 | 51.46494 | -0.38306 | 805 ft | 144 kts | 271° |
| 2026-05-04 15:37 | 51.46488 | -0.39892 | 600 ft | 142 kts | 274° |
| 2026-05-04 15:37 | 51.46491 | -0.41470 | 377 ft | 142 kts | 274° |
| 2026-05-04 15:38 | 51.46497 | -0.43052 | 222 ft | 142 kts | 273° |